createdAt,value
2022-10-22T00:01:04.908Z,13.35
2022-10-22T00:03:31.838Z,13.29
2022-10-22T00:06:00.887Z,13.20
2022-10-22T00:08:27.544Z,13.19
2022-10-22T00:10:56.438Z,13.19
2022-10-22T00:13:25.604Z,13.23
2022-10-22T00:15:52.130Z,13.19
2022-10-22T00:18:21.039Z,13.16
2022-10-22T00:20:47.991Z,13.23
2022-10-22T00:23:14.509Z,13.20
2022-10-22T00:25:41.145Z,13.12
2022-10-22T00:28:11.523Z,13.00
2022-10-22T00:30:43.303Z,13.09
2022-10-22T00:33:12.492Z,13.11
2022-10-22T00:35:41.499Z,13.07
2022-10-22T00:38:08.099Z,13.08
2022-10-22T00:40:35.059Z,13.02
2022-10-22T00:43:01.655Z,12.90
2022-10-22T00:45:28.921Z,12.95
2022-10-22T00:48:16.353Z,13.00
2022-10-22T00:50:47.661Z,13.10
2022-10-22T00:53:18.862Z,13.05
2022-10-22T00:55:51.778Z,13.16
2022-10-22T00:58:22.588Z,13.20
2022-10-22T01:00:49.653Z,13.18
2022-10-22T01:03:16.572Z,13.19
2022-10-22T01:05:51.557Z,13.17
2022-10-22T01:08:52.146Z,13.07
2022-10-22T01:11:27.725Z,13.02
2022-10-22T01:14:21.852Z,12.96
2022-10-22T01:17:03.478Z,13.02
2022-10-22T01:19:50.297Z,12.99
2022-10-22T01:22:32.866Z,12.95
2022-10-22T01:25:32.805Z,12.94
2022-10-22T01:28:42.115Z,12.88
2022-10-22T01:31:12.448Z,12.94
2022-10-22T01:33:40.325Z,12.92
2022-10-22T01:36:12.166Z,12.98
2022-10-22T01:38:42.158Z,13.04
2022-10-22T01:41:11.058Z,13.09
2022-10-22T01:43:37.657Z,13.09
2022-10-22T01:46:07.766Z,13.05
2022-10-22T01:48:46.095Z,13.10
2022-10-22T01:51:50.599Z,13.17
2022-10-22T01:54:47.760Z,13.17
2022-10-22T01:57:55.232Z,13.22
2022-10-22T02:00:24.925Z,13.25
2022-10-22T02:03:30.456Z,13.21
2022-10-22T02:06:05.340Z,13.30
2022-10-22T02:08:33.939Z,13.34
2022-10-22T02:11:01.628Z,13.32
2022-10-22T02:13:36.429Z,13.29
2022-10-22T02:16:07.396Z,13.30
2022-10-22T02:18:39.471Z,13.30
2022-10-22T02:23:36.318Z,13.36
2022-10-22T02:26:09.866Z,13.38
2022-10-22T02:28:43.559Z,13.39
2022-10-22T02:31:16.687Z,13.41
2022-10-22T02:33:47.936Z,13.39
2022-10-22T02:36:17.254Z,13.41
2022-10-22T02:38:51.426Z,13.37
2022-10-22T02:41:21.237Z,13.38
2022-10-22T02:43:54.313Z,13.33
2022-10-22T02:46:23.984Z,13.34
2022-10-22T02:48:50.519Z,13.40
2022-10-22T02:51:19.813Z,13.32
2022-10-22T02:53:46.705Z,13.44
2022-10-22T02:56:14.228Z,13.45
2022-10-22T02:58:40.789Z,13.47
2022-10-22T03:01:08.685Z,13.43
2022-10-22T03:03:38.478Z,13.43
2022-10-22T03:06:05.267Z,13.42
2022-10-22T03:08:32.329Z,13.43
2022-10-22T03:11:00.958Z,13.39
2022-10-22T03:13:27.480Z,13.40
2022-10-22T03:15:54.044Z,13.35
2022-10-22T03:18:22.932Z,13.38
2022-10-22T03:21:06.105Z,13.39
2022-10-22T03:23:35.640Z,13.30
2022-10-22T03:26:02.369Z,13.38
2022-10-22T03:28:31.412Z,13.38
2022-10-22T03:30:57.983Z,13.40
2022-10-22T03:33:24.521Z,13.46
2022-10-22T03:35:51.152Z,13.43
2022-10-22T03:38:22.607Z,13.48
2022-10-22T03:40:49.671Z,13.48
2022-10-22T03:43:17.113Z,13.50
2022-10-22T03:45:43.786Z,13.53
2022-10-22T03:48:12.637Z,13.51
2022-10-22T03:50:39.129Z,13.50
2022-10-22T03:53:07.198Z,13.50
2022-10-22T03:55:36.004Z,13.50
2022-10-22T03:58:05.337Z,13.50
2022-10-22T04:00:32.616Z,13.47
2022-10-22T04:03:01.464Z,13.51
2022-10-22T04:05:28.089Z,13.52
2022-10-22T04:07:54.854Z,13.50
2022-10-22T04:10:21.408Z,13.39
2022-10-22T04:12:50.678Z,13.48
2022-10-22T04:15:17.538Z,13.49
2022-10-22T04:17:46.583Z,13.38
2022-10-22T04:20:13.510Z,13.28
2022-10-22T04:22:40.067Z,13.37
2022-10-22T04:25:07.141Z,13.41
2022-10-22T04:27:36.341Z,13.21
2022-10-22T04:30:05.399Z,13.23
2022-10-22T04:32:34.487Z,13.34
2022-10-22T04:35:01.020Z,13.38
2022-10-22T04:37:27.930Z,13.43
2022-10-22T04:39:58.158Z,13.45
2022-10-22T04:42:27.428Z,13.42
2022-10-22T04:44:53.963Z,13.39
2022-10-22T04:47:22.891Z,13.38
2022-10-22T04:49:49.425Z,13.42
2022-10-22T04:52:18.951Z,13.44
2022-10-22T04:54:47.781Z,13.46
2022-10-22T04:57:14.594Z,13.48
2022-10-22T04:59:41.548Z,13.50
2022-10-22T05:02:08.636Z,13.51
2022-10-22T05:04:35.223Z,13.48
2022-10-22T05:07:01.862Z,13.44
2022-10-22T05:09:30.632Z,13.47
2022-10-22T05:11:57.168Z,13.46
2022-10-22T05:14:25.142Z,13.47
2022-10-22T05:16:52.952Z,13.51
2022-10-22T05:19:33.361Z,13.46
2022-10-22T05:22:02.355Z,13.50
2022-10-22T05:24:32.770Z,13.49
2022-10-22T05:27:02.860Z,13.49
2022-10-22T05:29:36.680Z,13.51
2022-10-22T05:32:05.593Z,13.52
2022-10-22T05:34:36.857Z,13.47
2022-10-22T05:37:06.162Z,13.51
2022-10-22T05:39:36.846Z,13.50
2022-10-22T05:42:06.689Z,13.47
2022-10-22T05:44:33.373Z,13.43
2022-10-22T05:46:59.993Z,13.49
2022-10-22T05:49:31.406Z,13.47
2022-10-22T05:51:57.962Z,13.46
2022-10-22T05:54:24.481Z,13.51
2022-10-22T05:56:51.198Z,13.52
2022-10-22T05:59:17.885Z,13.54
2022-10-22T06:01:44.680Z,13.49
2022-10-22T06:04:12.980Z,13.56
2022-10-22T06:06:49.041Z,13.54
2022-10-22T06:09:33.735Z,13.54
2022-10-22T06:12:00.347Z,13.36
2022-10-22T06:14:27.870Z,13.51
2022-10-22T06:16:55.201Z,13.50
2022-10-22T06:19:23.102Z,13.52
2022-10-22T06:21:51.961Z,13.51
2022-10-22T06:24:20.700Z,13.40
2022-10-22T06:26:50.920Z,13.52
2022-10-22T06:29:17.754Z,13.54
2022-10-22T06:31:46.837Z,13.56
2022-10-22T06:34:18.974Z,13.61
2022-10-22T06:36:46.588Z,13.63
2022-10-22T06:39:17.029Z,13.65
2022-10-22T06:41:45.963Z,13.64
2022-10-22T06:44:15.561Z,13.72
2022-10-22T06:46:43.571Z,13.64
2022-10-22T06:49:14.126Z,13.75
2022-10-22T06:51:40.936Z,13.80
2022-10-22T06:54:07.604Z,13.81
2022-10-22T06:56:34.130Z,13.82
2022-10-22T06:59:00.690Z,13.80
2022-10-22T07:01:31.023Z,13.83
2022-10-22T07:03:57.709Z,13.83
2022-10-22T07:06:25.809Z,13.94
2022-10-22T07:08:58.471Z,13.99
2022-10-22T07:11:28.666Z,14.06
2022-10-22T07:13:57.102Z,14.09
2022-10-22T07:16:26.888Z,14.08
2022-10-22T07:18:58.782Z,14.05
2022-10-22T07:21:26.556Z,14.07
2022-10-22T07:23:53.429Z,14.03
2022-10-22T07:26:20.447Z,14.08
2022-10-22T07:28:48.093Z,14.12
2022-10-22T07:31:16.036Z,14.13
2022-10-22T07:33:42.986Z,14.23
2022-10-22T07:36:17.746Z,14.27
2022-10-22T07:38:54.157Z,14.32
2022-10-22T07:41:20.647Z,14.29
2022-10-22T07:43:49.460Z,14.38
2022-10-22T07:46:16.362Z,14.46
2022-10-22T07:48:45.479Z,14.39
2022-10-22T07:51:17.100Z,14.59
2022-10-22T07:53:43.752Z,14.68
2022-10-22T07:56:10.403Z,14.61
2022-10-22T07:58:39.782Z,14.74
2022-10-22T08:01:06.541Z,14.77
2022-10-22T08:03:33.441Z,14.81
2022-10-22T08:06:01.020Z,15.03
2022-10-22T08:08:30.930Z,15.19
2022-10-22T08:10:59.912Z,15.33
2022-10-22T08:13:27.603Z,15.34
2022-10-22T08:15:57.327Z,15.37
2022-10-22T08:18:24.602Z,15.36
2022-10-22T08:20:51.768Z,15.60
2022-10-22T08:23:18.793Z,15.60
2022-10-22T08:25:47.638Z,15.63
2022-10-22T08:28:18.626Z,15.68
2022-10-22T08:30:50.540Z,15.66
2022-10-22T08:33:19.404Z,15.55
2022-10-22T08:35:50.466Z,15.47
2022-10-22T08:38:20.849Z,15.67
2022-10-22T08:40:51.823Z,15.60
2022-10-22T08:43:24.616Z,15.70
2022-10-22T08:46:00.243Z,15.67
2022-10-22T08:48:49.531Z,15.59
2022-10-22T08:51:25.452Z,15.58
2022-10-22T08:54:40.458Z,15.35
2022-10-22T08:57:09.432Z,15.42
2022-10-22T08:59:47.728Z,15.41
2022-10-22T09:02:30.416Z,15.52
2022-10-22T09:05:15.185Z,15.77
2022-10-22T09:07:44.154Z,15.89
2022-10-22T09:10:12.995Z,15.95
2022-10-22T09:12:39.950Z,16.07
2022-10-22T09:15:12.574Z,16.32
2022-10-22T09:17:44.875Z,16.52
2022-10-22T09:20:26.785Z,16.51
2022-10-22T09:23:05.192Z,16.71
2022-10-22T09:25:36.283Z,16.71
2022-10-22T09:28:03.500Z,16.71
2022-10-22T09:30:37.981Z,16.77
2022-10-22T09:33:07.487Z,16.87
2022-10-22T09:35:45.421Z,16.95
2022-10-22T09:38:14.335Z,17.01
2022-10-22T09:40:55.759Z,17.05
2022-10-22T09:43:23.110Z,16.83
2022-10-22T09:45:57.392Z,16.40
2022-10-22T09:48:34.345Z,16.25
2022-10-22T09:51:07.107Z,16.38
2022-10-22T09:53:42.225Z,16.51
2022-10-22T09:56:27.678Z,16.66
2022-10-22T09:58:57.223Z,16.80
2022-10-22T10:01:35.532Z,16.86
2022-10-22T10:04:10.268Z,16.90
2022-10-22T10:06:40.695Z,16.96
2022-10-22T10:09:16.641Z,16.90
2022-10-22T10:11:49.430Z,16.99
2022-10-22T10:14:25.994Z,17.21
2022-10-22T10:17:10.822Z,17.46
2022-10-22T10:19:37.706Z,17.33
2022-10-22T10:22:32.356Z,17.36
2022-10-22T10:25:23.316Z,17.66
2022-10-22T10:27:56.037Z,17.90
2022-10-22T10:30:26.460Z,17.79
2022-10-22T10:33:05.018Z,17.96
2022-10-22T10:35:36.618Z,18.06
2022-10-22T10:38:17.599Z,18.06
2022-10-22T10:40:57.935Z,18.01
2022-10-22T10:44:01.851Z,18.21
2022-10-22T10:46:44.142Z,17.95
2022-10-22T10:49:19.069Z,18.13
2022-10-22T10:52:00.011Z,18.36
2022-10-22T10:54:41.987Z,18.43
2022-10-22T10:57:36.749Z,18.28
2022-10-22T11:00:12.698Z,17.99
2022-10-22T11:03:08.696Z,17.75
2022-10-22T11:05:42.100Z,17.82
2022-10-22T11:08:28.104Z,18.14
2022-10-22T11:11:12.145Z,18.07
2022-10-22T11:14:05.029Z,18.13
2022-10-22T11:16:45.112Z,18.05
2022-10-22T11:19:52.310Z,17.85
2022-10-22T11:22:25.789Z,17.67
2022-10-22T11:25:02.583Z,17.36
2022-10-22T11:27:29.067Z,17.31
2022-10-22T11:30:15.463Z,17.28
2022-10-22T11:32:47.712Z,17.56
2022-10-22T11:35:28.663Z,17.70
2022-10-22T11:37:57.084Z,17.79
2022-10-22T11:40:29.549Z,17.75
2022-10-22T11:43:05.822Z,17.81
2022-10-22T11:45:42.918Z,17.88
2022-10-22T11:48:19.317Z,17.87
2022-10-22T11:50:49.031Z,17.97
2022-10-22T11:53:15.478Z,17.65
2022-10-22T11:55:51.767Z,17.70
2022-10-22T11:58:31.105Z,17.81
2022-10-22T12:01:09.759Z,17.92
2022-10-22T12:03:47.915Z,18.05
2022-10-22T12:06:18.475Z,18.26
2022-10-22T12:08:57.137Z,18.43
2022-10-22T12:11:47.770Z,18.19
2022-10-22T12:14:34.716Z,18.25
2022-10-22T12:17:18.879Z,18.10
2022-10-22T12:20:02.372Z,18.07
2022-10-22T12:22:32.254Z,18.18
2022-10-22T12:25:08.580Z,18.16
2022-10-22T12:27:36.427Z,18.24
2022-10-22T12:30:23.683Z,18.32
2022-10-22T12:33:03.718Z,18.28
2022-10-22T12:35:44.540Z,18.30
2022-10-22T12:38:20.228Z,18.18
2022-10-22T12:40:50.265Z,18.27
2022-10-22T12:43:19.754Z,18.17
2022-10-22T12:45:50.551Z,18.14
2022-10-22T12:48:44.208Z,18.24
2022-10-22T12:51:19.642Z,18.21
2022-10-22T12:53:54.432Z,18.11
2022-10-22T12:56:30.227Z,17.97
2022-10-22T12:59:03.751Z,18.02
2022-10-22T13:01:36.615Z,18.12
2022-10-22T13:04:21.982Z,18.19
2022-10-22T13:07:03.998Z,18.16
2022-10-22T13:09:41.333Z,18.05
2022-10-22T13:12:14.703Z,18.12
2022-10-22T13:14:41.261Z,18.08
2022-10-22T13:17:50.681Z,18.02
2022-10-22T13:20:23.329Z,18.18
2022-10-22T13:22:55.740Z,18.22
2022-10-22T13:25:34.073Z,18.24
2022-10-22T13:28:20.312Z,18.17
2022-10-22T13:30:58.941Z,18.07
2022-10-22T13:33:36.289Z,18.05
2022-10-22T13:36:04.097Z,18.10
2022-10-22T13:38:33.491Z,18.08
2022-10-22T13:41:03.280Z,18.07
2022-10-22T13:43:29.817Z,18.18
2022-10-22T13:45:59.717Z,18.27
2022-10-22T13:48:30.716Z,18.26
2022-10-22T13:50:57.673Z,18.18
2022-10-22T13:53:26.451Z,18.26
2022-10-22T13:55:53.358Z,18.21
2022-10-22T13:58:24.611Z,18.30
2022-10-22T14:01:02.927Z,18.30
2022-10-22T14:03:32.988Z,18.27
2022-10-22T14:06:00.004Z,18.16
2022-10-22T14:08:30.384Z,18.04
2022-10-22T14:10:59.213Z,17.96
2022-10-22T14:13:31.867Z,18.02
2022-10-22T14:15:58.795Z,18.17
2022-10-22T14:18:31.578Z,18.26
2022-10-22T14:21:13.176Z,18.29
2022-10-22T14:23:45.967Z,18.18
2022-10-22T14:26:25.635Z,18.27
2022-10-22T14:29:11.079Z,18.26
2022-10-22T14:31:44.290Z,18.41
2022-10-22T14:34:13.352Z,18.46
2022-10-22T14:36:40.322Z,18.42
2022-10-22T14:39:06.895Z,18.40
2022-10-22T14:41:33.788Z,18.30
2022-10-22T14:44:00.626Z,18.19
2022-10-22T14:46:27.197Z,18.03
2022-10-22T14:48:57.088Z,18.00
2022-10-22T14:51:26.314Z,17.93
2022-10-22T14:53:52.853Z,17.89
2022-10-22T14:56:23.228Z,17.96
2022-10-22T14:58:53.441Z,17.95
2022-10-22T15:01:19.966Z,17.94
2022-10-22T15:03:46.556Z,17.94
2022-10-22T15:06:15.901Z,17.86
2022-10-22T15:08:45.019Z,17.82
2022-10-22T15:11:13.838Z,17.80
2022-10-22T15:13:44.966Z,17.76
2022-10-22T15:16:14.718Z,17.72
2022-10-22T15:18:46.556Z,17.69
2022-10-22T15:21:33.486Z,17.63
2022-10-22T15:24:02.326Z,17.60
2022-10-22T15:26:31.794Z,17.54
2022-10-22T15:28:58.369Z,17.51
2022-10-22T15:31:49.120Z,17.51
2022-10-22T15:34:29.142Z,17.45
2022-10-22T15:36:58.547Z,17.29
2022-10-22T15:39:26.121Z,17.30
2022-10-22T15:41:53.761Z,17.28
2022-10-22T15:44:22.970Z,17.19
2022-10-22T15:49:26.010Z,17.18
2022-10-22T15:51:53.019Z,17.18
2022-10-22T15:54:24.624Z,17.21
2022-10-22T15:56:51.333Z,17.16
2022-10-22T15:59:18.142Z,17.15
2022-10-22T16:01:45.440Z,17.00
2022-10-22T16:04:17.197Z,16.85
2022-10-22T16:06:47.295Z,16.95
2022-10-22T16:09:19.930Z,16.86
2022-10-22T16:11:46.902Z,16.81
2022-10-22T16:14:15.366Z,16.76
2022-10-22T16:16:44.950Z,16.64
2022-10-22T16:19:12.908Z,16.56
2022-10-22T16:21:41.996Z,16.51
2022-10-22T16:24:09.502Z,16.43
2022-10-22T16:26:36.594Z,16.33
2022-10-22T16:29:07.210Z,16.23
2022-10-22T16:31:36.041Z,16.18
2022-10-22T16:34:07.452Z,16.11
2022-10-22T16:36:37.123Z,16.01
2022-10-22T16:39:07.959Z,16.00
2022-10-22T16:41:36.461Z,15.93
2022-10-22T16:44:09.103Z,15.87
2022-10-22T16:46:40.058Z,15.76
2022-10-22T16:49:07.228Z,15.72
2022-10-22T16:51:37.501Z,15.67
2022-10-22T16:54:06.823Z,15.56
2022-10-22T16:56:36.841Z,15.31
2022-10-22T16:59:06.105Z,15.28
2022-10-22T17:01:40.405Z,15.20
2022-10-22T17:04:09.895Z,15.10
2022-10-22T17:06:36.749Z,15.01
2022-10-22T17:09:05.858Z,14.89
2022-10-22T17:11:37.038Z,14.70
2022-10-22T17:14:08.357Z,14.76
2022-10-22T17:16:37.317Z,14.72
2022-10-22T17:19:04.293Z,14.72
2022-10-22T17:21:30.835Z,14.67
2022-10-22T17:23:58.084Z,14.70
2022-10-22T17:26:27.123Z,14.72
2022-10-22T17:28:56.431Z,14.66
2022-10-22T17:31:29.871Z,14.62
2022-10-22T17:33:57.133Z,14.56
2022-10-22T17:36:24.833Z,14.61
2022-10-22T17:38:57.540Z,14.67
2022-10-22T17:41:28.966Z,14.48
2022-10-22T17:43:59.638Z,14.54
2022-10-22T17:46:28.617Z,14.58
2022-10-22T17:49:03.757Z,14.62
2022-10-22T17:51:31.457Z,14.51
2022-10-22T17:53:58.363Z,14.37
2022-10-22T17:56:30.238Z,14.16
2022-10-22T17:59:01.663Z,14.17
2022-10-22T18:01:31.916Z,14.23
2022-10-22T18:04:10.885Z,14.25
2022-10-22T18:06:38.248Z,14.16
2022-10-22T18:09:06.883Z,14.07
2022-10-22T18:11:36.562Z,14.11
2022-10-22T18:14:06.782Z,14.13
2022-10-22T18:16:35.643Z,14.12
2022-10-22T18:19:02.262Z,14.03
2022-10-22T18:21:30.394Z,14.03
2022-10-22T18:24:00.083Z,13.97
2022-10-22T18:26:28.846Z,13.83
2022-10-22T18:28:57.339Z,13.60
2022-10-22T18:31:26.126Z,13.51
2022-10-22T18:36:26.315Z,13.56
2022-10-22T18:38:58.215Z,13.56
2022-10-22T18:41:25.976Z,13.51
2022-10-22T18:43:54.673Z,13.46
2022-10-22T18:46:22.618Z,13.44
2022-10-22T18:48:49.868Z,13.49
2022-10-22T18:51:19.027Z,13.46
2022-10-22T18:53:59.131Z,13.47
2022-10-22T18:56:36.333Z,13.55
2022-10-22T18:59:03.247Z,13.51
2022-10-22T19:01:30.517Z,13.46
2022-10-22T19:03:57.509Z,13.49
2022-10-22T19:06:35.799Z,13.43
2022-10-22T19:09:04.437Z,13.28
2022-10-22T19:11:31.901Z,13.33
2022-10-22T19:13:58.621Z,13.32
2022-10-22T19:16:29.003Z,13.16
2022-10-22T19:19:06.997Z,13.30
2022-10-22T19:21:36.785Z,13.25
2022-10-22T19:24:09.116Z,13.18
2022-10-22T19:26:36.335Z,13.18
2022-10-22T19:29:06.388Z,13.13
2022-10-22T19:31:33.113Z,13.18
2022-10-22T19:34:02.707Z,13.20
2022-10-22T19:36:31.076Z,13.19
2022-10-22T19:38:58.065Z,13.16
2022-10-22T19:41:26.298Z,13.13
2022-10-22T19:43:54.498Z,13.14
2022-10-22T19:46:27.852Z,13.17
2022-10-22T19:48:57.939Z,13.12
2022-10-22T19:51:33.840Z,12.97
2022-10-22T19:54:06.213Z,13.04
2022-10-22T19:56:34.213Z,12.95
2022-10-22T19:59:00.811Z,12.86
2022-10-22T20:01:27.942Z,12.70
2022-10-22T20:03:54.882Z,12.84
2022-10-22T20:06:24.181Z,12.82
2022-10-22T20:08:55.972Z,12.77
2022-10-22T20:11:29.329Z,12.73
2022-10-22T20:14:02.073Z,12.73
2022-10-22T20:16:30.010Z,12.38
2022-10-22T20:19:02.508Z,12.44
2022-10-22T20:21:29.675Z,12.53
2022-10-22T20:23:57.527Z,12.56
2022-10-22T20:26:27.853Z,12.54
2022-10-22T20:28:58.479Z,12.58
2022-10-22T20:31:29.690Z,12.63
2022-10-22T20:33:58.758Z,12.62
2022-10-22T20:36:26.975Z,12.48
2022-10-22T20:38:59.656Z,12.53
2022-10-22T20:41:26.246Z,12.41
2022-10-22T20:43:55.424Z,12.38
2022-10-22T20:46:26.470Z,12.44
2022-10-22T20:49:02.398Z,12.43
2022-10-22T20:51:31.610Z,12.40
2022-10-22T20:54:00.397Z,12.41
2022-10-22T20:56:27.655Z,12.33
2022-10-22T20:59:04.675Z,12.32
2022-10-22T21:01:42.761Z,12.29
2022-10-22T21:04:09.714Z,12.27
2022-10-22T21:06:40.403Z,12.14
2022-10-22T21:09:08.578Z,12.23
2022-10-22T21:11:39.354Z,12.17
2022-10-22T21:14:07.920Z,12.15
2022-10-22T21:16:42.898Z,12.12
2022-10-22T21:19:09.433Z,12.08
2022-10-22T21:21:36.007Z,12.08
2022-10-22T21:24:02.610Z,12.08
2022-10-22T21:26:29.291Z,12.07
2022-10-22T21:28:58.037Z,11.99
2022-10-22T21:31:26.383Z,11.84
2022-10-22T21:33:56.127Z,11.78
2022-10-22T21:36:23.727Z,11.83
2022-10-22T21:38:54.267Z,11.90
2022-10-22T21:41:24.225Z,11.96
2022-10-22T21:43:53.373Z,11.96
2022-10-22T21:46:29.618Z,11.94
2022-10-22T21:49:02.176Z,11.96
2022-10-22T21:51:34.435Z,11.94
2022-10-22T21:54:01.402Z,11.88
2022-10-22T21:56:33.770Z,11.93
2022-10-22T21:59:09.077Z,11.81
2022-10-22T22:01:36.588Z,11.84
2022-10-22T22:04:04.178Z,11.80
2022-10-22T22:06:33.374Z,11.78
2022-10-22T22:09:03.570Z,11.64
2022-10-22T22:11:30.555Z,11.44
2022-10-22T22:13:58.432Z,11.54
2022-10-22T22:16:31.318Z,11.64
2022-10-22T22:21:40.201Z,11.64
2022-10-22T22:24:07.530Z,11.68
2022-10-22T22:26:34.272Z,11.71
2022-10-22T22:29:01.554Z,11.71
2022-10-22T22:31:33.559Z,11.77
2022-10-22T22:34:09.948Z,11.82
2022-10-22T22:36:39.083Z,11.87
2022-10-22T22:39:12.366Z,11.86
2022-10-22T22:41:42.575Z,11.90
2022-10-22T22:44:09.344Z,11.91
2022-10-22T22:46:36.302Z,11.94
2022-10-22T22:49:06.105Z,11.93
2022-10-22T22:51:37.985Z,11.87
2022-10-22T22:54:04.995Z,11.79
2022-10-22T22:56:35.418Z,11.76
2022-10-22T22:59:02.945Z,11.70
2022-10-22T23:01:33.899Z,11.68
2022-10-22T23:04:10.448Z,11.67
2022-10-22T23:06:37.787Z,11.67
2022-10-22T23:09:09.227Z,11.74
2022-10-22T23:11:43.764Z,11.76
2022-10-22T23:14:13.858Z,11.83
2022-10-22T23:16:46.268Z,11.74
2022-10-22T23:19:15.348Z,11.66
2022-10-22T23:21:48.069Z,11.61
2022-10-22T23:24:19.426Z,11.59
2022-10-22T23:26:48.315Z,11.62
2022-10-22T23:29:42.927Z,11.50
2022-10-22T23:32:17.325Z,11.44
2022-10-22T23:34:46.122Z,11.53
2022-10-22T23:37:12.646Z,11.62
2022-10-22T23:39:43.652Z,11.64
2022-10-22T23:42:12.431Z,11.64
2022-10-22T23:44:39.088Z,11.56
2022-10-22T23:47:05.640Z,11.50
2022-10-22T23:49:32.232Z,11.43
2022-10-22T23:51:59.120Z,11.45
2022-10-22T23:54:26.122Z,11.52
2022-10-22T23:56:52.718Z,11.58
2022-10-22T23:59:21.641Z,11.61
